createdAt,value
2024-03-30T00:00:33.469Z,20.2
2024-03-30T00:01:35.782Z,20.2
2024-03-30T00:02:38.209Z,20.2
2024-03-30T00:03:40.633Z,20.2
2024-03-30T00:04:43.059Z,20.2
2024-03-30T00:05:45.664Z,20.2
2024-03-30T00:06:47.937Z,20.2
2024-03-30T00:07:50.399Z,20.2
2024-03-30T00:08:52.813Z,20.2
2024-03-30T00:09:55.208Z,20.2
2024-03-30T00:10:57.609Z,20.2
2024-03-30T00:12:00.033Z,20.2
2024-03-30T00:13:02.492Z,20.2
2024-03-30T00:14:04.877Z,20.2
2024-03-30T00:15:07.295Z,20.2
2024-03-30T00:16:09.703Z,20.2
2024-03-30T00:17:12.210Z,20.2
2024-03-30T00:18:14.838Z,20.2
2024-03-30T00:19:17.249Z,20.2
2024-03-30T00:20:19.666Z,20.2
2024-03-30T00:21:21.891Z,20.2
2024-03-30T00:22:24.395Z,20.3
2024-03-30T00:23:26.795Z,20.2
2024-03-30T00:24:29.203Z,20.2
2024-03-30T00:25:31.591Z,20.2
2024-03-30T00:26:33.804Z,20.2
2024-03-30T00:27:36.199Z,20.2
2024-03-30T00:28:38.524Z,20.2
2024-03-30T00:29:40.951Z,20.2
2024-03-30T00:30:43.423Z,20.2
2024-03-30T00:31:45.852Z,20.3
2024-03-30T00:32:48.541Z,20.3
2024-03-30T00:33:51.221Z,20.2
2024-03-30T00:34:53.745Z,20.3
2024-03-30T00:35:56.204Z,20.2
2024-03-30T00:36:58.432Z,20.3
2024-03-30T00:38:00.880Z,20.3
2024-03-30T00:39:03.331Z,20.3
2024-03-30T00:40:05.752Z,20.3
2024-03-30T00:41:08.006Z,20.3
2024-03-30T00:42:10.228Z,20.3
2024-03-30T00:43:12.472Z,20.3
2024-03-30T00:44:14.890Z,20.2
2024-03-30T00:45:17.323Z,20.2
2024-03-30T00:46:19.764Z,20.2
2024-03-30T00:48:27.419Z,5.5
2024-03-30T00:49:29.636Z,8.3
2024-03-30T00:50:32.047Z,10.6
2024-03-30T00:51:34.463Z,12.4
2024-03-30T00:52:36.891Z,13.9
2024-03-30T00:53:39.132Z,15.1
2024-03-30T00:54:41.565Z,16.1
2024-03-30T00:55:44.037Z,16.9
2024-03-30T00:56:46.475Z,17.5
2024-03-30T00:57:48.583Z,18
2024-03-30T00:58:51.018Z,18.5
2024-03-30T00:59:53.504Z,18.8
2024-03-30T01:00:55.974Z,19.1
2024-03-30T01:01:58.382Z,19.3
2024-03-30T01:03:00.600Z,19.5
2024-03-30T01:04:03.071Z,19.6
2024-03-30T01:05:05.333Z,19.7
2024-03-30T01:06:07.728Z,19.8
2024-03-30T01:07:10.148Z,19.9
2024-03-30T01:08:12.367Z,20
2024-03-30T01:09:14.769Z,20
2024-03-30T01:10:17.012Z,20.1
2024-03-30T01:11:19.559Z,20.2
2024-03-30T01:12:22.012Z,20.2
2024-03-30T01:13:24.061Z,20.2
2024-03-30T01:14:26.498Z,20.2
2024-03-30T01:15:28.961Z,20.2
2024-03-30T01:16:31.410Z,20.3
2024-03-30T01:17:33.871Z,20.3
2024-03-30T01:18:36.327Z,20.3
2024-03-30T01:19:38.576Z,20.3
2024-03-30T01:20:41.010Z,20.3
2024-03-30T01:21:43.246Z,20.3
2024-03-30T01:22:45.894Z,20.3
2024-03-30T01:23:48.414Z,20.3
2024-03-30T01:24:50.876Z,20.3
2024-03-30T01:25:53.290Z,20.3
2024-03-30T01:26:55.724Z,20.3
2024-03-30T01:27:58.129Z,20.3
2024-03-30T01:29:00.540Z,20.3
2024-03-30T01:30:02.767Z,20.3
2024-03-30T01:31:05.024Z,20.4
2024-03-30T01:32:07.490Z,20.3
2024-03-30T01:33:09.954Z,20.3
2024-03-30T01:34:12.426Z,20.3
2024-03-30T01:35:14.684Z,20.3
2024-03-30T01:36:17.077Z,20.3
2024-03-30T01:37:19.515Z,20.4
2024-03-30T01:38:21.908Z,20.4
2024-03-30T01:39:24.192Z,20.4
2024-03-30T01:40:26.612Z,20.4
2024-03-30T01:41:29.037Z,20.4
2024-03-30T01:42:31.429Z,20.4
2024-03-30T01:43:33.628Z,20.4
2024-03-30T01:44:36.045Z,20.4
2024-03-30T01:45:38.486Z,20.4
2024-03-30T01:46:40.692Z,20.4
2024-03-30T01:47:43.172Z,20.3
2024-03-30T01:48:45.575Z,20.3
2024-03-30T01:49:48.001Z,20.3
2024-03-30T01:50:50.496Z,20.4
2024-03-30T01:51:53.021Z,20.4
2024-03-30T01:52:55.413Z,20.4
2024-03-30T01:53:57.639Z,20.4
2024-03-30T01:55:00.039Z,20.4
2024-03-30T01:56:02.075Z,20.4
2024-03-30T01:57:04.323Z,20.5
2024-03-30T01:58:06.528Z,20.5
2024-03-30T01:59:08.907Z,20.4
2024-03-30T02:00:11.329Z,20.4
2024-03-30T02:01:13.528Z,20.4
2024-03-30T02:02:15.765Z,20.4
2024-03-30T02:03:18.184Z,20.4
2024-03-30T02:04:20.650Z,20.5
2024-03-30T02:05:23.061Z,20.4
2024-03-30T02:06:25.458Z,20.4
2024-03-30T02:07:27.856Z,20.5
2024-03-30T02:08:30.261Z,20.4
2024-03-30T02:09:32.724Z,20.4
2024-03-30T02:10:34.939Z,20.4
2024-03-30T02:11:37.586Z,20.4
2024-03-30T02:12:39.981Z,20.4
2024-03-30T02:13:42.404Z,20.4
2024-03-30T02:14:44.824Z,20.4
2024-03-30T02:15:47.220Z,20.5
2024-03-30T02:16:49.642Z,20.4
2024-03-30T02:17:52.157Z,20.4
2024-03-30T02:18:54.720Z,20.4
2024-03-30T02:19:57.109Z,20.4
2024-03-30T02:20:59.596Z,20.4
2024-03-30T02:22:02.076Z,20.4
2024-03-30T02:23:04.498Z,20.4
2024-03-30T02:24:06.724Z,20.4
2024-03-30T02:25:09.159Z,20.4
2024-03-30T02:26:11.380Z,20.4
2024-03-30T02:27:13.803Z,20.5
2024-03-30T02:28:16.247Z,20.5
2024-03-30T02:29:18.906Z,20.4
2024-03-30T02:30:21.323Z,20.4
2024-03-30T02:31:23.740Z,20.4
2024-03-30T02:32:26.303Z,20.4
2024-03-30T02:33:28.785Z,20.5
2024-03-30T02:34:31.238Z,20.5
2024-03-30T02:35:33.674Z,20.5
2024-03-30T02:36:36.141Z,20.5
2024-03-30T02:37:38.609Z,20.5
2024-03-30T02:38:40.839Z,20.5
2024-03-30T02:39:43.277Z,20.5
2024-03-30T02:40:45.693Z,20.5
2024-03-30T02:41:48.127Z,20.4
2024-03-30T02:42:50.644Z,20.4
2024-03-30T02:43:53.092Z,20.4
2024-03-30T02:44:55.591Z,20.4
2024-03-30T02:45:57.993Z,20.4
2024-03-30T02:47:00.404Z,20.5
2024-03-30T02:48:02.882Z,20.5
2024-03-30T02:49:05.298Z,20.5
2024-03-30T02:50:07.767Z,20.5
2024-03-30T02:51:10.173Z,20.5
2024-03-30T02:52:12.727Z,20.5
2024-03-30T02:53:15.020Z,20.5
2024-03-30T02:54:17.447Z,20.5
2024-03-30T02:55:19.675Z,20.4
2024-03-30T02:56:22.080Z,20.5
2024-03-30T02:57:24.505Z,20.5
2024-03-30T02:58:26.802Z,20.5
2024-03-30T02:59:29.234Z,20.5
2024-03-30T03:00:31.700Z,20.5
2024-03-30T03:01:34.004Z,20.5
2024-03-30T03:02:36.411Z,20.5
2024-03-30T03:03:38.807Z,20.5
2024-03-30T03:04:41.199Z,20.5
2024-03-30T03:05:43.636Z,20.5
2024-03-30T03:06:46.054Z,20.5
2024-03-30T03:07:48.503Z,20.5
2024-03-30T03:08:50.961Z,20.5
2024-03-30T03:09:53.586Z,20.5
2024-03-30T03:10:56.033Z,20.5
2024-03-30T03:11:58.544Z,20.5
2024-03-30T03:13:00.976Z,20.5
2024-03-30T03:14:03.248Z,20.4
2024-03-30T03:15:05.526Z,20.4
2024-03-30T03:16:07.750Z,20.5
2024-03-30T03:17:10.158Z,20.5
2024-03-30T03:18:12.570Z,20.5
2024-03-30T03:19:15.031Z,20.5
2024-03-30T03:20:17.498Z,20.5
2024-03-30T03:21:19.958Z,20.5
2024-03-30T03:22:22.451Z,20.5
2024-03-30T03:23:24.931Z,20.5
2024-03-30T03:24:27.375Z,20.5
2024-03-30T03:25:29.816Z,20.5
2024-03-30T03:26:32.253Z,20.5
2024-03-30T03:27:34.670Z,20.5
2024-03-30T03:28:37.096Z,20.5
2024-03-30T03:29:39.904Z,20.4
2024-03-30T03:30:42.119Z,20.5
2024-03-30T03:31:44.523Z,20.5
2024-03-30T03:32:46.964Z,20.5
2024-03-30T03:33:49.454Z,20.5
2024-03-30T03:34:51.834Z,20.5
2024-03-30T03:35:54.291Z,20.5
2024-03-30T03:36:57.478Z,20.5
2024-03-30T03:37:59.892Z,20.5
2024-03-30T03:39:01.893Z,20.5
2024-03-30T03:40:04.453Z,20.6
2024-03-30T03:41:06.856Z,20.6
2024-03-30T03:42:09.266Z,20.5
2024-03-30T03:43:11.476Z,20.5
2024-03-30T03:44:13.914Z,20.5
2024-03-30T03:45:16.313Z,20.5
2024-03-30T03:46:18.730Z,20.5
2024-03-30T03:47:21.171Z,20.5
2024-03-30T03:48:23.659Z,20.5
2024-03-30T03:49:25.937Z,20.5
2024-03-30T03:50:28.559Z,20.5
2024-03-30T03:51:30.976Z,20.5
2024-03-30T03:52:33.496Z,20.5
2024-03-30T03:53:35.926Z,20.5
2024-03-30T03:54:38.360Z,20.5
2024-03-30T03:55:40.790Z,20.5
2024-03-30T03:56:43.208Z,20.5
2024-03-30T03:57:45.591Z,20.5
2024-03-30T03:58:47.615Z,20.5
2024-03-30T03:59:49.855Z,20.5
2024-03-30T04:00:52.379Z,20.5
2024-03-30T04:01:54.788Z,20.5
2024-03-30T04:02:57.321Z,20.5
2024-03-30T04:03:59.819Z,20.5
2024-03-30T04:05:02.060Z,20.5
2024-03-30T04:06:04.499Z,20.5
2024-03-30T04:07:06.899Z,20.5
2024-03-30T04:08:09.450Z,20.5
2024-03-30T04:09:11.853Z,20.5
2024-03-30T04:10:14.458Z,20.5
2024-03-30T04:11:16.916Z,20.5
2024-03-30T04:12:19.332Z,20.5
2024-03-30T04:13:21.744Z,20.6
2024-03-30T04:14:23.923Z,20.5
2024-03-30T04:15:26.372Z,20.5
2024-03-30T04:16:28.856Z,20.5
2024-03-30T04:17:37.458Z,5.5
2024-03-30T04:18:39.963Z,8.4
2024-03-30T04:19:42.368Z,10.6
2024-03-30T04:20:44.790Z,12.5
2024-03-30T04:21:47.203Z,14
2024-03-30T04:22:49.603Z,15.2
2024-03-30T04:23:52.121Z,16.2
2024-03-30T04:24:54.471Z,17
2024-03-30T04:25:56.654Z,17.6
2024-03-30T04:26:59.128Z,18.2
2024-03-30T04:28:01.661Z,18.6
2024-03-30T04:29:03.948Z,18.9
2024-03-30T04:30:06.387Z,19.2
2024-03-30T04:31:08.593Z,19.5
2024-03-30T04:32:10.998Z,19.7
2024-03-30T04:33:13.404Z,19.9
2024-03-30T04:34:15.792Z,20
2024-03-30T04:35:18.335Z,20.1
2024-03-30T04:36:20.745Z,20.1
2024-03-30T04:37:23.204Z,20.2
2024-03-30T04:38:25.644Z,20.2
2024-03-30T04:39:27.804Z,20.3
2024-03-30T04:40:30.194Z,20.3
2024-03-30T04:41:32.655Z,20.3
2024-03-30T04:42:35.098Z,20.3
2024-03-30T04:43:37.542Z,20.4
2024-03-30T04:44:39.943Z,20.4
2024-03-30T04:45:42.393Z,20.4
2024-03-30T04:46:44.211Z,20.4
2024-03-30T04:47:46.423Z,20.4
2024-03-30T04:48:48.854Z,20.5
2024-03-30T04:49:51.081Z,20.5
2024-03-30T04:50:53.499Z,20.5
2024-03-30T04:51:55.960Z,20.5
2024-03-30T04:52:58.345Z,20.5
2024-03-30T04:54:00.808Z,20.5
2024-03-30T04:55:03.291Z,20.5
2024-03-30T04:56:05.722Z,20.5
2024-03-30T04:57:08.214Z,20.5
2024-03-30T04:58:10.649Z,20.4
2024-03-30T04:59:13.041Z,20.4
2024-03-30T05:00:15.432Z,20.4
2024-03-30T05:01:17.879Z,20.4
2024-03-30T05:02:20.321Z,20.5
2024-03-30T05:03:23.327Z,20.5
2024-03-30T05:04:25.762Z,20.4
2024-03-30T05:05:28.192Z,20.4
2024-03-30T05:06:30.598Z,20.4
2024-03-30T05:07:33.046Z,20.5
2024-03-30T05:08:35.476Z,20.4
2024-03-30T05:09:37.860Z,20.4
2024-03-30T05:10:40.169Z,20.4
2024-03-30T05:11:42.647Z,20.4
2024-03-30T05:12:45.050Z,20.5
2024-03-30T05:13:47.531Z,20.5
2024-03-30T05:14:49.921Z,20.5
2024-03-30T05:15:52.321Z,20.5
2024-03-30T05:16:54.740Z,20.5
2024-03-30T05:17:57.207Z,20.5
2024-03-30T05:18:59.775Z,20.5
2024-03-30T05:20:02.250Z,20.5
2024-03-30T05:21:04.688Z,20.4
2024-03-30T05:22:07.101Z,20.4
2024-03-30T05:23:09.518Z,20.4
2024-03-30T05:24:11.912Z,20.4
2024-03-30T05:25:14.338Z,20.4
2024-03-30T05:26:16.616Z,20.4
2024-03-30T05:27:19.103Z,20.4
2024-03-30T05:28:21.520Z,20.4
2024-03-30T05:29:23.947Z,20.3
2024-03-30T05:30:26.419Z,20.4
2024-03-30T05:31:28.838Z,20.4
2024-03-30T05:32:31.207Z,20.4
2024-03-30T05:33:33.617Z,20.4
2024-03-30T05:34:36.039Z,20.4
2024-03-30T05:35:38.475Z,20.4
2024-03-30T05:36:40.683Z,20.4
2024-03-30T05:37:42.928Z,20.4
2024-03-30T05:38:45.355Z,20.4
2024-03-30T05:39:47.795Z,20.4
2024-03-30T05:40:50.207Z,20.4
2024-03-30T05:41:52.666Z,20.4
2024-03-30T05:42:55.077Z,20.4
2024-03-30T05:43:57.525Z,20.4
2024-03-30T05:44:59.837Z,20.4
2024-03-30T05:46:02.457Z,20.4
2024-03-30T05:47:04.887Z,20.4
2024-03-30T05:48:07.404Z,20.4
2024-03-30T05:49:09.882Z,20.3
2024-03-30T05:50:12.385Z,20.3
2024-03-30T05:51:14.841Z,20.3
2024-03-30T05:52:17.243Z,20.4
2024-03-30T05:53:19.689Z,20.3
2024-03-30T05:54:22.130Z,20.4
2024-03-30T05:55:24.435Z,20.4
2024-03-30T05:56:26.842Z,20.4
2024-03-30T05:57:29.323Z,20.4
2024-03-30T05:58:31.800Z,20.4
2024-03-30T05:59:34.272Z,20.4
2024-03-30T06:00:36.759Z,20.4
2024-03-30T06:01:39.198Z,20.3
2024-03-30T06:02:41.665Z,20.4
2024-03-30T06:03:44.120Z,20.4
2024-03-30T06:04:46.536Z,20.4
2024-03-30T06:05:49.000Z,20.4
2024-03-30T06:06:51.421Z,20.4
2024-03-30T06:07:53.836Z,20.4
2024-03-30T06:08:56.069Z,20.4
2024-03-30T06:09:58.557Z,20.4
2024-03-30T06:11:01.091Z,20.4
2024-03-30T06:12:03.545Z,20.4
2024-03-30T06:13:06.036Z,20.4
2024-03-30T06:14:08.448Z,20.4
2024-03-30T06:15:10.639Z,20.4
2024-03-30T06:16:12.892Z,20.4
2024-03-30T06:17:15.294Z,20.4
2024-03-30T06:18:17.714Z,20.4
2024-03-30T06:19:20.165Z,20.4
2024-03-30T06:20:22.652Z,20.4
2024-03-30T06:21:25.124Z,20.4
2024-03-30T06:22:27.576Z,20.4
2024-03-30T06:23:29.979Z,20.4
2024-03-30T06:24:32.459Z,20.4
2024-03-30T06:25:34.922Z,20.4
2024-03-30T06:26:37.388Z,20.4
2024-03-30T06:27:39.800Z,20.4
2024-03-30T06:28:42.248Z,20.3
2024-03-30T06:29:44.633Z,20.4
2024-03-30T06:30:47.035Z,20.4
2024-03-30T06:31:49.443Z,20.4
2024-03-30T06:32:51.851Z,20.4
2024-03-30T06:33:54.258Z,20.4
2024-03-30T06:34:56.692Z,20.4
2024-03-30T06:35:59.116Z,20.4
2024-03-30T06:37:01.632Z,20.4
2024-03-30T06:38:03.879Z,20.4
2024-03-30T06:39:06.321Z,20.4
2024-03-30T06:40:08.778Z,20.4
2024-03-30T06:41:11.203Z,20.4
2024-03-30T06:42:13.585Z,20.4
2024-03-30T06:43:15.799Z,20.4
2024-03-30T06:44:18.218Z,20.4
2024-03-30T06:45:20.636Z,20.4
2024-03-30T06:46:23.047Z,20.4
2024-03-30T06:47:25.521Z,20.4
2024-03-30T06:48:28.158Z,20.3
2024-03-30T06:49:30.576Z,20.3
2024-03-30T06:50:32.790Z,20.3
2024-03-30T06:51:35.224Z,20.3
2024-03-30T06:52:37.278Z,20.3
2024-03-30T06:53:39.712Z,20.3
2024-03-30T06:54:42.179Z,20.4
2024-03-30T06:55:44.588Z,20.4
2024-03-30T06:56:47.011Z,20.4
2024-03-30T06:57:49.418Z,20.4
2024-03-30T06:58:51.884Z,20.4
2024-03-30T06:59:54.382Z,20.4
2024-03-30T07:00:56.824Z,20.4
2024-03-30T07:03:04.516Z,5.5
2024-03-30T07:04:06.995Z,8.3
2024-03-30T07:05:09.430Z,10.7
2024-03-30T07:06:11.829Z,12.5
2024-03-30T07:08:19.429Z,5.5
2024-03-30T07:09:21.839Z,8.3
2024-03-30T07:10:24.333Z,10.6
2024-03-30T07:11:26.786Z,12.5
2024-03-30T07:12:31.108Z,14
2024-03-30T07:13:35.696Z,5.5
2024-03-30T07:14:38.140Z,8.4
2024-03-30T07:15:40.670Z,10.7
2024-03-30T07:17:48.259Z,5.5
2024-03-30T07:18:50.707Z,8.4
2024-03-30T07:19:54.386Z,10.7
2024-03-30T07:20:56.830Z,12.6
2024-03-30T07:21:59.081Z,14.1
2024-03-30T07:23:01.499Z,15.4
2024-03-30T07:24:04.018Z,16.3
2024-03-30T07:25:06.580Z,17.1
2024-03-30T07:26:08.813Z,17.8
2024-03-30T07:27:11.214Z,18.3
2024-03-30T07:28:13.656Z,18.7
2024-03-30T07:29:16.041Z,19.1
2024-03-30T07:30:18.250Z,19.4
2024-03-30T07:31:20.693Z,19.6
2024-03-30T07:32:23.103Z,19.8
2024-03-30T07:33:25.382Z,19.9
2024-03-30T07:34:27.905Z,20.1
2024-03-30T07:35:30.151Z,20.2
2024-03-30T07:36:32.605Z,20.3
2024-03-30T07:37:35.006Z,20.3
2024-03-30T07:38:37.425Z,20.3
2024-03-30T07:39:39.843Z,20.4
2024-03-30T07:40:42.281Z,20.5
2024-03-30T07:41:44.707Z,20.5
2024-03-30T07:42:47.003Z,20.5
2024-03-30T07:43:49.427Z,20.5
2024-03-30T07:44:51.815Z,20.6
2024-03-30T07:45:54.210Z,20.6
2024-03-30T07:46:56.777Z,20.6
2024-03-30T07:48:00.036Z,20.6
2024-03-30T07:49:02.341Z,20.6
2024-03-30T07:50:04.785Z,20.6
2024-03-30T07:51:07.217Z,20.6
2024-03-30T07:52:09.488Z,20.6
2024-03-30T07:53:11.676Z,20.6
2024-03-30T07:54:14.124Z,20.6
2024-03-30T07:55:16.352Z,20.6
2024-03-30T07:56:18.759Z,20.6
2024-03-30T07:57:20.978Z,20.6
2024-03-30T07:58:23.169Z,20.6
2024-03-30T07:59:25.656Z,20.6
2024-03-30T08:00:28.219Z,20.6
2024-03-30T08:01:30.758Z,20.6
2024-03-30T08:02:33.203Z,20.6
2024-03-30T08:03:35.474Z,20.6
2024-03-30T08:04:37.882Z,20.6
2024-03-30T08:05:40.139Z,20.6
2024-03-30T08:06:42.379Z,20.6
2024-03-30T08:07:44.773Z,20.6
2024-03-30T08:08:47.161Z,20.6
2024-03-30T08:09:49.365Z,20.6
2024-03-30T08:10:51.632Z,20.6
2024-03-30T08:11:54.155Z,20.6
2024-03-30T08:12:56.586Z,20.6
2024-03-30T08:13:59.069Z,20.6
2024-03-30T08:15:01.591Z,20.7
2024-03-30T08:16:04.131Z,20.7
2024-03-30T08:17:06.558Z,20.7
2024-03-30T08:18:09.071Z,20.7
2024-03-30T08:19:11.530Z,20.7
2024-03-30T08:20:13.940Z,20.7
2024-03-30T08:21:16.453Z,20.7
2024-03-30T08:22:18.884Z,20.7
2024-03-30T08:23:21.107Z,20.7
2024-03-30T08:24:23.598Z,20.7
2024-03-30T08:25:26.039Z,20.7
2024-03-30T08:26:28.539Z,20.7
2024-03-30T08:27:30.981Z,20.7
2024-03-30T08:28:33.379Z,20.7
2024-03-30T08:29:35.798Z,20.7
2024-03-30T08:30:38.205Z,20.7
2024-03-30T08:31:40.428Z,20.6
2024-03-30T08:32:42.870Z,20.7
2024-03-30T08:33:45.292Z,20.7
2024-03-30T08:34:47.749Z,20.7
2024-03-30T08:35:50.152Z,20.7
2024-03-30T08:36:52.605Z,20.7
2024-03-30T08:37:55.065Z,20.7
2024-03-30T08:38:57.076Z,20.7
2024-03-30T08:39:59.482Z,20.7
2024-03-30T08:41:01.918Z,20.7
2024-03-30T08:42:04.386Z,20.7
2024-03-30T08:43:06.487Z,20.7
2024-03-30T08:44:08.940Z,20.7
2024-03-30T08:45:11.340Z,20.7
2024-03-30T08:46:13.749Z,20.7
2024-03-30T08:47:15.979Z,20.6
2024-03-30T08:48:18.359Z,20.7
2024-03-30T08:49:20.817Z,20.7
2024-03-30T08:50:23.235Z,20.7
2024-03-30T08:51:25.654Z,20.6
2024-03-30T08:52:28.112Z,20.6
2024-03-30T08:53:30.522Z,20.6
2024-03-30T08:54:32.755Z,20.6
2024-03-30T08:55:34.964Z,20.7
2024-03-30T08:56:37.379Z,20.7
2024-03-30T08:57:39.934Z,20.7
2024-03-30T08:58:42.397Z,20.6
2024-03-30T08:59:44.607Z,20.6
2024-03-30T09:00:46.988Z,20.6
2024-03-30T09:01:49.427Z,20.6
2024-03-30T09:02:52.625Z,20.6
2024-03-30T09:03:55.043Z,20.6
2024-03-30T09:04:57.757Z,20.7
2024-03-30T09:06:01.955Z,20.7
2024-03-30T09:07:04.432Z,20.7
2024-03-30T09:08:06.881Z,20.7
2024-03-30T09:09:09.250Z,20.7
2024-03-30T09:10:11.770Z,20.7
2024-03-30T09:11:14.014Z,20.7
2024-03-30T09:12:16.413Z,20.7
2024-03-30T09:13:18.875Z,20.7
2024-03-30T09:14:21.299Z,20.7
2024-03-30T09:15:23.773Z,20.7
2024-03-30T09:16:26.180Z,20.7
2024-03-30T09:17:28.770Z,20.7
2024-03-30T09:18:31.320Z,20.7
2024-03-30T09:19:33.820Z,20.7
2024-03-30T09:20:36.256Z,20.7
2024-03-30T09:21:38.478Z,20.6
2024-03-30T09:22:40.878Z,20.6
2024-03-30T09:23:43.291Z,20.6
2024-03-30T09:24:45.710Z,20.6
2024-03-30T09:25:48.124Z,20.6
2024-03-30T09:26:50.532Z,20.6
2024-03-30T09:27:52.930Z,20.6
2024-03-30T09:28:55.352Z,20.6
2024-03-30T09:29:57.768Z,20.6
2024-03-30T09:31:00.179Z,20.6
2024-03-30T09:32:02.417Z,20.6
2024-03-30T09:33:04.839Z,20.7
2024-03-30T09:34:07.319Z,20.7
2024-03-30T09:35:09.748Z,20.7
2024-03-30T09:36:12.007Z,20.7
2024-03-30T09:37:14.425Z,20.7
2024-03-30T09:38:16.816Z,20.7
2024-03-30T09:39:19.273Z,20.7
2024-03-30T09:40:21.703Z,20.7
2024-03-30T09:41:24.221Z,20.7
2024-03-30T09:42:26.644Z,20.7
2024-03-30T09:43:29.020Z,20.7
2024-03-30T09:44:31.484Z,20.6
2024-03-30T09:45:34.164Z,20.7
2024-03-30T09:46:36.604Z,20.7
2024-03-30T09:47:39.025Z,20.7
2024-03-30T09:48:41.645Z,20.7
2024-03-30T09:49:44.046Z,20.7
2024-03-30T09:50:46.457Z,20.7
2024-03-30T09:51:49.254Z,20.7
2024-03-30T09:52:51.674Z,20.7
2024-03-30T09:53:54.224Z,20.7
2024-03-30T09:54:56.687Z,20.8
2024-03-30T09:55:59.081Z,20.8
2024-03-30T09:57:01.492Z,20.8
2024-03-30T09:58:03.954Z,20.8
2024-03-30T09:59:06.343Z,20.8
2024-03-30T10:00:08.675Z,20.7
2024-03-30T10:01:11.058Z,20.7
2024-03-30T10:02:13.493Z,20.7
2024-03-30T10:03:16.161Z,20.7
2024-03-30T10:04:18.386Z,20.7
2024-03-30T10:06:25.809Z,5.5
2024-03-30T10:07:28.289Z,8.4
2024-03-30T10:08:30.734Z,10.7
2024-03-30T10:09:33.163Z,12.6
2024-03-30T10:10:35.410Z,14.1
2024-03-30T10:11:37.680Z,15.4
2024-03-30T10:12:40.126Z,16.5
2024-03-30T10:13:42.502Z,17.2
2024-03-30T10:14:44.678Z,17.9
2024-03-30T10:15:47.086Z,18.4
2024-03-30T10:16:49.550Z,18.9
2024-03-30T10:17:51.969Z,19.2
2024-03-30T10:18:54.423Z,19.5
2024-03-30T10:19:57.951Z,19.7
2024-03-30T10:21:00.174Z,19.9
2024-03-30T10:22:02.560Z,20
2024-03-30T10:23:04.828Z,20.2
2024-03-30T10:24:07.242Z,20.3
2024-03-30T10:25:09.692Z,20.4
2024-03-30T10:26:12.134Z,20.4
2024-03-30T10:27:14.541Z,20.5
2024-03-30T10:28:16.739Z,20.5
2024-03-30T10:29:19.245Z,20.6
2024-03-30T10:30:21.670Z,20.6
2024-03-30T10:31:24.104Z,20.6
2024-03-30T10:32:26.436Z,20.6
2024-03-30T10:33:28.965Z,20.6
2024-03-30T10:34:31.372Z,20.6
2024-03-30T10:35:33.802Z,20.7
2024-03-30T10:36:36.222Z,20.7
2024-03-30T10:37:38.626Z,20.7
2024-03-30T10:38:41.183Z,20.7
2024-03-30T10:39:43.600Z,20.7
2024-03-30T10:40:45.990Z,20.7
2024-03-30T10:41:48.438Z,20.7
2024-03-30T10:42:50.839Z,20.7
2024-03-30T10:43:53.308Z,20.7
2024-03-30T10:44:55.710Z,20.7
2024-03-30T10:45:57.944Z,20.7
2024-03-30T10:47:00.355Z,20.6
2024-03-30T10:48:02.794Z,20.6
2024-03-30T10:49:05.241Z,20.6
2024-03-30T10:50:07.687Z,20.6
2024-03-30T10:51:10.213Z,20.6
2024-03-30T10:52:12.798Z,20.6
2024-03-30T10:53:15.198Z,20.6
2024-03-30T10:54:17.633Z,20.6
2024-03-30T10:55:19.818Z,20.6
2024-03-30T10:56:23.524Z,20.7
2024-03-30T10:57:25.944Z,20.7
2024-03-30T10:58:28.353Z,20.7
2024-03-30T10:59:30.752Z,20.7
2024-03-30T11:00:33.268Z,20.7
2024-03-30T11:01:35.937Z,20.7
2024-03-30T11:02:38.431Z,20.7
2024-03-30T11:03:40.909Z,20.7
2024-03-30T11:04:43.358Z,20.7
2024-03-30T11:05:45.781Z,20.7
2024-03-30T11:06:48.222Z,20.7
2024-03-30T11:07:50.703Z,20.7
2024-03-30T11:08:53.097Z,20.7
2024-03-30T11:09:55.536Z,20.7
2024-03-30T11:10:57.932Z,20.7
2024-03-30T11:12:00.375Z,20.7
2024-03-30T11:13:02.618Z,20.7
2024-03-30T11:14:06.682Z,20.7
2024-03-30T11:15:09.142Z,20.8
2024-03-30T11:16:11.735Z,20.7
2024-03-30T11:17:14.209Z,20.7
2024-03-30T11:18:20.282Z,20.7
2024-03-30T11:19:23.726Z,5.5
2024-03-30T11:20:26.159Z,8.4
2024-03-30T11:21:28.607Z,10.7
2024-03-30T11:22:30.807Z,12.6
2024-03-30T11:23:33.237Z,14.1
2024-03-30T11:24:35.737Z,15.4
2024-03-30T11:25:38.243Z,16.4
2024-03-30T11:26:40.653Z,17.2
2024-03-30T11:27:43.053Z,17.8
2024-03-30T11:28:45.466Z,18.4
2024-03-30T11:29:47.887Z,18.7
2024-03-30T11:31:55.475Z,5.5
2024-03-30T11:32:57.889Z,8.4
2024-03-30T11:34:00.140Z,10.8
2024-03-30T11:35:05.902Z,12.6
2024-03-30T11:36:10.257Z,5.5
2024-03-30T11:37:12.787Z,8.4
2024-03-30T11:39:20.414Z,5.5
2024-03-30T11:40:25.032Z,8.4
2024-03-30T11:41:27.493Z,10.8
2024-03-30T11:42:29.998Z,12.6
2024-03-30T11:43:32.398Z,14.2
2024-03-30T11:44:34.795Z,15.4
2024-03-30T11:45:37.239Z,16.4
2024-03-30T11:46:39.520Z,17.2
2024-03-30T11:47:41.974Z,17.9
2024-03-30T11:48:44.444Z,18.4
2024-03-30T11:49:46.686Z,18.9
2024-03-30T11:50:49.104Z,19.2
2024-03-30T11:51:51.524Z,19.5
2024-03-30T11:52:53.985Z,19.7
2024-03-30T11:53:56.381Z,19.9
2024-03-30T11:54:58.689Z,20
2024-03-30T11:56:01.076Z,20.1
2024-03-30T11:58:08.734Z,5.6
2024-03-30T11:59:10.904Z,8.4
2024-03-30T12:00:13.421Z,10.7
2024-03-30T12:01:15.900Z,12.6
2024-03-30T12:02:18.117Z,14.2
2024-03-30T12:03:20.574Z,15.4
2024-03-30T12:04:23.153Z,16.4
2024-03-30T12:05:25.602Z,17.2
2024-03-30T12:06:28.016Z,17.8
2024-03-30T12:07:30.447Z,18.4
2024-03-30T12:08:32.906Z,18.8
2024-03-30T12:09:35.137Z,19.1
2024-03-30T12:10:37.573Z,19.4
2024-03-30T12:11:40.114Z,19.6
2024-03-30T12:12:42.594Z,19.8
2024-03-30T12:13:45.000Z,20
2024-03-30T12:14:47.369Z,20.1
2024-03-30T12:15:49.790Z,20.2
2024-03-30T12:16:52.207Z,20.3
2024-03-30T12:17:54.442Z,20.4
2024-03-30T12:18:56.891Z,20.4
2024-03-30T12:19:59.722Z,20.5
2024-03-30T12:21:02.276Z,20.6
2024-03-30T12:22:04.787Z,20.6
2024-03-30T12:23:07.190Z,20.6
2024-03-30T12:24:09.651Z,20.6
2024-03-30T12:25:12.173Z,20.6
2024-03-30T12:26:14.576Z,20.6
2024-03-30T12:27:17.046Z,20.6
2024-03-30T12:28:19.479Z,20.6
2024-03-30T12:30:26.830Z,5.6
2024-03-30T12:31:29.371Z,8.4
2024-03-30T12:32:31.815Z,10.8
2024-03-30T12:33:34.264Z,12.6
2024-03-30T12:34:36.673Z,14.1
2024-03-30T12:35:39.205Z,15.4
2024-03-30T12:36:41.654Z,16.4
2024-03-30T12:37:44.080Z,17.2
2024-03-30T12:38:46.475Z,17.9
2024-03-30T12:39:48.984Z,18.4
2024-03-30T12:40:51.376Z,18.9
2024-03-30T12:41:53.457Z,19.2
2024-03-30T12:42:56.085Z,19.5
2024-03-30T12:43:58.532Z,19.7
2024-03-30T12:45:00.952Z,19.9
2024-03-30T12:46:03.367Z,20
2024-03-30T12:47:05.616Z,20.2
2024-03-30T12:48:08.025Z,20.2
2024-03-30T12:49:10.523Z,20.3
2024-03-30T12:50:12.926Z,20.4
2024-03-30T12:51:15.386Z,20.4
2024-03-30T12:52:17.833Z,20.5
2024-03-30T12:53:20.353Z,20.5
2024-03-30T12:54:22.765Z,20.6
2024-03-30T12:55:25.200Z,20.6
2024-03-30T12:57:32.770Z,5.6
2024-03-30T12:58:35.158Z,8.5
2024-03-30T12:59:37.617Z,10.8
2024-03-30T13:00:40.047Z,12.7
2024-03-30T13:01:42.472Z,14.2
2024-03-30T13:02:44.906Z,15.4
2024-03-30T13:03:47.291Z,16.4
2024-03-30T13:04:49.714Z,17.2
2024-03-30T13:05:52.126Z,17.9
2024-03-30T13:07:59.772Z,5.5
2024-03-30T13:09:02.179Z,8.4
2024-03-30T13:10:04.853Z,10.8
2024-03-30T13:11:07.291Z,12.6
2024-03-30T13:12:09.812Z,14.1
2024-03-30T13:13:12.092Z,15.4
2024-03-30T13:14:14.573Z,16.4
2024-03-30T13:15:17.040Z,17.2
2024-03-30T13:16:19.518Z,17.9
2024-03-30T13:17:21.838Z,18.4
2024-03-30T13:18:24.234Z,18.8
2024-03-30T13:19:26.632Z,19.2
2024-03-30T13:20:28.664Z,19.5
2024-03-30T13:21:31.293Z,19.6
2024-03-30T13:22:33.783Z,19.8
2024-03-30T13:23:36.199Z,20
2024-03-30T13:24:38.617Z,20.1
2024-03-30T13:25:41.052Z,20.2
2024-03-30T13:26:43.485Z,20.2
2024-03-30T13:27:45.869Z,20.3
2024-03-30T13:28:48.254Z,20.4
2024-03-30T13:29:50.653Z,20.4
2024-03-30T13:30:53.163Z,20.5
2024-03-30T13:31:55.668Z,20.5
2024-03-30T13:32:58.081Z,20.5
2024-03-30T13:34:00.494Z,20.5
2024-03-30T13:35:02.959Z,20.6
2024-03-30T13:36:08.015Z,20.6
2024-03-30T13:37:12.612Z,5.5
2024-03-30T13:38:15.135Z,8.4
2024-03-30T13:39:17.641Z,10.7
2024-03-30T13:40:20.094Z,12.6
2024-03-30T13:41:22.302Z,14.2
2024-03-30T13:42:24.558Z,15.4
2024-03-30T13:43:26.944Z,16.4
2024-03-30T13:44:29.335Z,17.2
2024-03-30T13:45:31.789Z,17.9
2024-03-30T13:46:34.285Z,18.4
2024-03-30T13:47:36.798Z,18.8
2024-03-30T13:48:39.211Z,19.2
2024-03-30T13:49:41.628Z,19.5
2024-03-30T13:50:43.839Z,19.7
2024-03-30T13:51:46.253Z,19.8
2024-03-30T13:52:48.701Z,20
2024-03-30T13:53:50.958Z,20.2
2024-03-30T13:54:53.393Z,20.3
2024-03-30T13:55:55.872Z,20.4
2024-03-30T13:56:58.335Z,20.4
2024-03-30T13:58:00.648Z,20.4
2024-03-30T13:59:03.069Z,20.5
2024-03-30T14:00:05.282Z,20.5
2024-03-30T14:01:07.706Z,20.5
2024-03-30T14:02:10.201Z,20.5
2024-03-30T14:03:12.666Z,20.5
2024-03-30T14:04:15.129Z,20.5
2024-03-30T14:05:17.565Z,20.6